Time;durP1;ratioP1;P1;durP2;ratioP2;P2;SDS_P1;SDS_P2;PMS_P1;PMS_P2;Temp;Humidity;BMP_temperature;BMP_pressure;BME280_temperature;BME280_humidity;BME280_pressure;Samples;Min_cycle;Max_cycle;Signal;HPM_P1;HPM_P2
2023/04/21 00:01:59;;;;;;;11.30;7.80;;;7.70;60.10;;;;;;5024961;28;20606;-67
2023/04/21 00:04:25;;;;;;;11.50;8.30;;;7.70;62.40;;;;;;5033543;28;20553;-66
2023/04/21 00:06:51;;;;;;;11.47;7.53;;;7.70;61.90;;;;;;5036069;28;20498;-68
2023/04/21 00:09:18;;;;;;;17.77;9.53;;;7.60;56.10;;;;;;5025092;28;20179;-66
2023/04/21 00:11:43;;;;;;;12.43;8.30;;;7.60;53.70;;;;;;5031929;28;20401;-66
2023/04/21 00:14:09;;;;;;;11.20;8.93;;;7.70;53.70;;;;;;5029634;28;20552;-65
2023/04/21 00:16:35;;;;;;;12.47;8.63;;;7.60;54.20;;;;;;5033304;28;20270;-68
2023/04/21 00:19:05;;;;;;;7.90;7.00;;;7.70;53.30;;;;;;5018669;28;20192;-68
2023/04/21 00:21:35;;;;;;;10.33;8.40;;;7.70;53.00;;;;;;5018836;28;20184;-67
2023/04/21 00:24:00;;;;;;;12.23;8.13;;;7.60;51.40;;;;;;5033971;28;20822;-67
2023/04/21 00:26:26;;;;;;;10.40;7.77;;;7.60;45.70;;;;;;5029272;28;20457;-67
2023/04/21 00:28:52;;;;;;;11.70;8.47;;;7.70;45.80;;;;;;5033364;28;20176;-66
2023/04/21 00:31:17;;;;;;;14.73;8.57;;;7.70;42.20;;;;;;5032878;28;20194;-66
2023/04/21 00:33:43;;;;;;;9.77;7.37;;;7.60;37.40;;;;;;5030104;28;20215;-66
2023/04/21 00:36:09;;;;;;;10.43;8.60;;;7.60;34.40;;;;;;5018341;28;20175;-66
2023/04/21 00:38:35;;;;;;;11.97;8.80;;;7.60;30.80;;;;;;5030181;28;20179;-67
2023/04/21 00:41:01;;;;;;;10.07;7.30;;;7.60;29.50;;;;;;5033503;28;20172;-68
2023/04/21 00:43:29;;;;;;;13.60;8.33;;;7.60;27.20;;;;;;5033471;28;20512;-65
2023/04/21 00:45:54;;;;;;;12.30;8.27;;;7.60;31.50;;;;;;5031945;28;20192;-65
2023/04/21 00:48:20;;;;;;;10.07;7.77;;;7.60;30.40;;;;;;5024542;28;20422;-67
2023/04/21 00:50:46;;;;;;;11.33;8.27;;;7.60;30.50;;;;;;5032325;28;20194;-66
2023/04/21 00:53:13;;;;;;;10.70;8.00;;;7.70;28.40;;;;;;5032950;28;20230;-65
2023/04/21 00:55:39;;;;;;;14.10;8.20;;;7.70;22.60;;;;;;5033347;28;20261;-68
2023/04/21 00:58:06;;;;;;;8.90;8.00;;;7.70;17.40;;;;;;5033466;28;20465;-66
2023/04/21 01:00:32;;;;;;;10.10;7.33;;;7.70;18.10;;;;;;5027982;28;20588;-66
2023/04/21 01:03:01;;;;;;;10.20;8.50;;;7.70;17.00;;;;;;5027821;28;20543;-66
2023/04/21 01:05:27;;;;;;;9.20;7.57;;;7.70;16.10;;;;;;5027033;28;20466;-66
2023/04/21 01:07:52;;;;;;;9.37;6.60;;;7.70;13.60;;;;;;5027906;28;20426;-67
2023/04/21 01:10:18;;;;;;;13.63;7.73;;;7.70;9.00;;;;;;5031815;28;20176;-66
2023/04/21 01:12:45;;;;;;;9.43;7.37;;;7.70;10.30;;;;;;5030632;28;20273;-67
2023/04/21 01:15:12;;;;;;;13.23;7.03;;;7.70;5.60;;;;;;5028381;28;20171;-66
2023/04/21 01:17:39;;;;;;;13.20;6.97;;;7.70;8.90;;;;;;5032317;28;20435;-66
2023/04/21 01:20:12;;;;;;;12.70;6.97;;;7.70;1.50;;;;;;5031316;28;20450;-67
2023/04/21 01:22:39;;;;;;;16.73;10.20;;;7.60;2.10;;;;;;5024174;28;20459;-66
2023/04/21 01:25:06;;;;;;;9.10;7.50;;;7.60;1.00;;;;;;5026509;28;20454;-66
2023/04/21 01:27:31;;;;;;;14.57;8.00;;;7.60;1.00;;;;;;5028439;28;20422;-67
2023/04/21 01:29:57;;;;;;;18.13;7.40;;;7.60;1.00;;;;;;5031549;28;21031;-66
2023/04/21 01:32:27;;;;;;;10.67;7.80;;;7.60;1.00;;;;;;5031041;28;20454;-67
2023/04/21 01:34:55;;;;;;;8.80;7.10;;;7.60;1.00;;;;;;5022378;28;20168;-66
2023/04/21 01:37:24;;;;;;;8.03;7.27;;;7.60;1.00;;;;;;5026948;28;20459;-68
2023/04/21 01:39:54;;;;;;;9.03;7.23;;;7.60;1.00;;;;;;5018405;28;20496;-65
2023/04/21 01:42:22;;;;;;;8.60;6.70;;;7.50;1.00;;;;;;5032293;28;20446;-66
2023/04/21 01:44:48;;;;;;;8.00;7.30;;;7.50;1.00;;;;;;5032330;28;20543;-66
2023/04/21 01:47:15;;;;;;;9.23;6.97;;;7.50;1.00;;;;;;5032580;28;20466;-67
2023/04/21 01:49:41;;;;;;;8.57;6.73;;;7.50;1.00;;;;;;5028434;28;20434;-66
2023/04/21 01:52:06;;;;;;;8.10;7.30;;;7.50;1.00;;;;;;5028555;28;20464;-66
2023/04/21 01:54:32;;;;;;;10.37;7.50;;;7.50;1.00;;;;;;5024942;28;20187;-66
2023/04/21 01:56:58;;;;;;;7.47;6.87;;;7.40;1.00;;;;;;5018394;28;20608;-66
2023/04/21 01:59:24;;;;;;;6.73;6.13;;;7.40;1.00;;;;;;5029286;28;20201;-66
2023/04/21 02:01:49;;;;;;;8.80;7.57;;;7.40;1.00;;;;;;5024836;28;20267;-65
2023/04/21 02:04:16;;;;;;;14.67;7.57;;;7.40;1.00;;;;;;5022692;28;20553;-67
2023/04/21 02:06:44;;;;;;;9.13;6.83;;;7.40;1.00;;;;;;5032105;28;20175;-65
2023/04/21 02:09:10;;;;;;;12.90;7.40;;;7.40;1.00;;;;;;5021719;28;20433;-66
2023/04/21 02:11:36;;;;;;;24.47;7.57;;;7.40;1.00;;;;;;5019188;28;21424;-68
2023/04/21 02:14:02;;;;;;;12.93;6.20;;;7.40;1.00;;;;;;5031764;28;20517;-67
2023/04/21 02:16:28;;;;;;;7.37;6.77;;;7.40;1.00;;;;;;5026671;28;20456;-66
2023/04/21 02:18:55;;;;;;;11.70;7.97;;;7.40;1.00;;;;;;5023667;28;20435;-67
2023/04/21 02:21:22;;;;;;;11.83;6.60;;;7.40;1.00;;;;;;5027663;28;20434;-66
2023/04/21 02:23:48;;;;;;;9.00;6.53;;;7.30;1.00;;;;;;5031510;28;20885;-68
2023/04/21 02:26:14;;;;;;;11.33;6.60;;;7.40;1.00;;;;;;5019323;28;20493;-67
2023/04/21 02:28:40;;;;;;;10.67;6.10;;;7.40;1.00;;;;;;5030424;28;20491;-67
2023/04/21 02:31:05;;;;;;;7.77;5.07;;;7.40;1.00;;;;;;5024076;28;20423;-67
2023/04/21 02:33:31;;;;;;;11.43;7.30;;;7.40;1.00;;;;;;5022860;28;20728;-66
2023/04/21 02:35:56;;;;;;;8.23;6.60;;;7.40;1.00;;;;;;5030336;28;20184;-66
2023/04/21 02:38:22;;;;;;;9.60;6.23;;;7.30;1.00;;;;;;5031231;28;20183;-67
2023/04/21 02:40:49;;;;;;;7.53;6.10;;;7.40;1.00;;;;;;5030205;28;20253;-66
2023/04/21 02:43:15;;;;;;;6.40;5.67;;;7.40;1.00;;;;;;5031150;28;20668;-67
2023/04/21 02:45:41;;;;;;;10.27;6.60;;;7.30;1.00;;;;;;5026264;28;20452;-67
2023/04/21 02:48:06;;;;;;;6.93;5.90;;;7.30;1.00;;;;;;5031006;28;20434;-66
2023/04/21 02:50:32;;;;;;;14.40;6.53;;;7.30;1.00;;;;;;5028441;28;20179;-66
2023/04/21 02:52:58;;;;;;;8.77;6.47;;;7.30;1.00;;;;;;5019433;28;20187;-66
2023/04/21 02:55:24;;;;;;;9.60;6.50;;;7.30;1.00;;;;;;5030616;28;20184;-66
2023/04/21 02:57:49;;;;;;;7.90;7.10;;;7.30;1.00;;;;;;5031091;28;20195;-66
2023/04/21 03:00:16;;;;;;;6.50;5.97;;;7.30;1.00;;;;;;5028174;28;20183;-66
2023/04/21 03:02:41;;;;;;;11.40;6.87;;;7.30;1.00;;;;;;5031569;28;20203;-67
2023/04/21 03:05:07;;;;;;;6.50;5.93;;;7.30;1.00;;;;;;5031064;28;21075;-67
2023/04/21 03:07:33;;;;;;;8.93;5.83;;;7.30;1.00;;;;;;5028696;28;20431;-67
2023/04/21 03:09:59;;;;;;;6.90;6.23;;;7.30;1.00;;;;;;5030941;28;20915;-66
2023/04/21 03:12:25;;;;;;;7.00;5.13;;;7.30;1.00;;;;;;5030323;28;20206;-66
2023/04/21 03:14:50;;;;;;;9.60;6.83;;;7.30;1.00;;;;;;5023103;28;20184;-66
2023/04/21 03:17:16;;;;;;;8.57;6.10;;;7.30;1.00;;;;;;5029161;28;20211;-66
2023/04/21 03:19:42;;;;;;;7.00;6.30;;;7.20;1.00;;;;;;5031733;28;20163;-66
2023/04/21 03:22:07;;;;;;;16.37;6.50;;;7.20;1.00;;;;;;5029582;28;20200;-66
2023/04/21 03:24:33;;;;;;;11.07;6.60;;;7.20;1.00;;;;;;5032927;28;20203;-65
2023/04/21 03:26:59;;;;;;;11.13;6.30;;;7.20;1.00;;;;;;5029482;28;20272;-67
2023/04/21 03:29:24;;;;;;;16.83;6.13;;;7.20;1.00;;;;;;5030964;28;20541;-66
2023/04/21 03:31:50;;;;;;;13.83;6.63;;;7.20;1.00;;;;;;5028813;28;20203;-67
2023/04/21 03:34:16;;;;;;;12.37;6.63;;;7.20;1.00;;;;;;5029732;28;20191;-66
2023/04/21 03:36:41;;;;;;;6.50;5.90;;;7.10;1.00;;;;;;5028718;28;20514;-66
2023/04/21 03:39:07;;;;;;;9.20;6.50;;;7.10;1.00;;;;;;5015336;28;20202;-66
2023/04/21 03:41:33;;;;;;;7.83;5.97;;;7.10;1.00;;;;;;5017297;28;20637;-66
2023/04/21 03:43:59;;;;;;;6.43;5.00;;;7.10;1.00;;;;;;5030837;28;21012;-66
2023/04/21 03:46:24;;;;;;;9.73;5.93;;;7.10;1.00;;;;;;5029625;28;20176;-66
2023/04/21 03:48:50;;;;;;;8.53;7.03;;;7.10;1.00;;;;;;5029816;28;20190;-67
2023/04/21 03:51:16;;;;;;;10.47;6.33;;;7.10;1.00;;;;;;5029988;28;20215;-67
2023/04/21 03:53:42;;;;;;;9.50;6.10;;;7.10;1.00;;;;;;5029885;28;20207;-67
2023/04/21 03:56:08;;;;;;;9.20;6.60;;;7.20;1.00;;;;;;5030380;28;20434;-67
2023/04/21 03:58:34;;;;;;;9.30;6.67;;;7.20;1.00;;;;;;5029723;28;20807;-65
2023/04/21 04:01:00;;;;;;;8.80;6.03;;;7.20;1.00;;;;;;5026774;28;20492;-67
2023/04/21 04:03:26;;;;;;;10.70;5.50;;;7.20;1.00;;;;;;5029975;28;20921;-66
2023/04/21 04:05:51;;;;;;;13.13;6.10;;;7.20;1.00;;;;;;5028958;28;20326;-67
2023/04/21 04:08:17;;;;;;;6.27;5.70;;;7.20;1.00;;;;;;5030951;28;20191;-66
2023/04/21 04:10:43;;;;;;;11.07;6.53;;;7.20;1.00;;;;;;5026893;28;20180;-66
2023/04/21 04:13:09;;;;;;;11.77;6.40;;;7.20;1.00;;;;;;5032678;28;20456;-67
2023/04/21 04:15:35;;;;;;;11.77;6.80;;;7.20;1.00;;;;;;5033592;28;20426;-66
2023/04/21 04:18:02;;;;;;;9.47;5.80;;;7.20;1.00;;;;;;5036000;28;20175;-67
2023/04/21 04:20:28;;;;;;;12.57;6.27;;;7.20;1.00;;;;;;5033251;28;20187;-67
2023/04/21 04:22:54;;;;;;;6.73;5.60;;;7.10;1.00;;;;;;5032104;28;20428;-66
2023/04/21 04:25:20;;;;;;;14.27;8.43;;;7.10;1.00;;;;;;5033754;28;20563;-66
2023/04/21 04:27:48;;;;;;;6.17;5.67;;;7.20;1.00;;;;;;5034768;28;20547;-67
2023/04/21 04:30:14;;;;;;;5.73;5.13;;;7.20;1.00;;;;;;5017690;28;20437;-66
2023/04/21 04:32:40;;;;;;;6.37;5.27;;;7.10;1.00;;;;;;5033571;28;20450;-66
2023/04/21 04:35:06;;;;;;;14.00;6.27;;;7.10;1.00;;;;;;5034076;28;20438;-65
2023/04/21 04:37:34;;;;;;;9.13;5.73;;;7.20;1.00;;;;;;5032069;28;20830;-67
2023/04/21 04:40:00;;;;;;;8.00;6.33;;;7.20;1.00;;;;;;5025517;28;20474;-67
2023/04/21 04:42:25;;;;;;;7.33;6.27;;;7.20;1.00;;;;;;5032512;28;20493;-66
2023/04/21 04:44:56;;;;;;;9.80;6.37;;;7.20;1.00;;;;;;5032060;28;20203;-66
2023/04/21 04:47:21;;;;;;;11.27;6.00;;;7.20;1.00;;;;;;5030185;28;20200;-68
2023/04/21 04:49:47;;;;;;;6.23;5.30;;;7.20;1.00;;;;;;5019018;28;20492;-66
2023/04/21 04:52:13;;;;;;;13.70;6.03;;;7.20;1.00;;;;;;5032124;28;20207;-66
2023/04/21 04:54:38;;;;;;;13.33;6.37;;;7.30;1.00;;;;;;5031762;28;20591;-66
2023/04/21 04:57:04;;;;;;;9.70;5.83;;;7.30;1.00;;;;;;5033923;28;20191;-66
2023/04/21 04:59:30;;;;;;;5.30;4.90;;;7.30;1.00;;;;;;5032361;28;20183;-66
2023/04/21 05:01:56;;;;;;;7.53;4.97;;;7.30;1.00;;;;;;5027178;28;20207;-65
2023/04/21 05:04:22;;;;;;;6.17;5.57;;;7.40;1.00;;;;;;5021928;28;20568;-67
2023/04/21 05:06:48;;;;;;;5.50;5.00;;;7.40;1.00;;;;;;5032124;28;20537;-66
2023/04/21 05:09:15;;;;;;;13.77;5.40;;;7.40;1.00;;;;;;5031209;28;20428;-67
2023/04/21 05:11:40;;;;;;;6.13;5.53;;;7.50;1.00;;;;;;5031122;28;20495;-66
2023/04/21 05:14:09;;;;;;;12.70;6.40;;;7.50;1.00;;;;;;5031222;28;20509;-65
2023/04/21 05:16:34;;;;;;;6.20;5.20;;;7.60;1.00;;;;;;5033472;28;20187;-67
2023/04/21 05:19:01;;;;;;;8.67;4.70;;;7.60;1.00;;;;;;5032781;28;20794;-66
2023/04/21 05:21:27;;;;;;;6.73;5.23;;;7.70;1.00;;;;;;5020909;28;20180;-66
2023/04/21 05:23:55;;;;;;;5.80;5.20;;;7.70;1.00;;;;;;5030576;28;20450;-65
2023/04/21 05:26:20;;;;;;;5.97;4.90;;;7.80;1.00;;;;;;5029184;28;20434;-67
2023/04/21 05:28:46;;;;;;;7.07;4.30;;;7.90;1.00;;;;;;5032323;28;20401;-66
2023/04/21 05:31:12;;;;;;;8.23;5.40;;;7.90;1.00;;;;;;5032046;28;20434;-66
2023/04/21 05:33:38;;;;;;;5.50;5.00;;;8.00;1.00;;;;;;5032677;28;20297;-68
2023/04/21 05:36:10;;;;;;;6.27;5.63;;;8.00;1.00;;;;;;5030150;28;20605;-66
2023/04/21 05:38:37;;;;;;;9.13;5.67;;;8.10;1.00;;;;;;5032934;28;20317;-67
2023/04/21 05:41:03;;;;;;;6.43;4.80;;;8.20;1.00;;;;;;5031859;28;20853;-67
2023/04/21 05:43:32;;;;;;;8.47;6.20;;;8.20;1.00;;;;;;5032385;28;20457;-67
2023/04/21 05:45:58;;;;;;;5.53;5.00;;;8.20;1.00;;;;;;5031582;28;20471;-68
2023/04/21 05:48:24;;;;;;;7.47;5.23;;;8.30;1.00;;;;;;5030678;28;20402;-70
2023/04/21 05:50:50;;;;;;;9.17;6.17;;;8.30;1.00;;;;;;5028229;28;20868;-67
2023/04/21 05:53:16;;;;;;;6.00;5.40;;;8.40;1.00;;;;;;5019763;28;20196;-67
2023/04/21 05:55:41;;;;;;;6.03;5.40;;;8.40;1.00;;;;;;5029426;28;20638;-67
2023/04/21 05:58:07;;;;;;;8.10;5.20;;;8.50;1.00;;;;;;5028322;28;20487;-66
2023/04/21 06:00:33;;;;;;;7.77;5.37;;;8.60;1.00;;;;;;5023994;28;20183;-68
2023/04/21 06:02:58;;;;;;;11.37;5.97;;;8.70;1.00;;;;;;5026347;28;20205;-68
2023/04/21 06:05:24;;;;;;;9.03;5.10;;;8.80;1.00;;;;;;5031642;28;20705;-66
2023/04/21 06:07:50;;;;;;;6.10;5.60;;;8.90;1.00;;;;;;5022573;28;20182;-65
2023/04/21 06:10:16;;;;;;;5.97;5.43;;;8.90;1.00;;;;;;5031018;28;20563;-67
2023/04/21 06:12:42;;;;;;;6.73;5.60;;;8.90;1.00;;;;;;5030493;28;20203;-67
2023/04/21 06:15:08;;;;;;;5.50;5.00;;;9.00;1.00;;;;;;5021501;28;20416;-68
2023/04/21 06:17:33;;;;;;;5.53;5.00;;;9.10;1.00;;;;;;5028123;28;20552;-69
2023/04/21 06:19:59;;;;;;;4.67;4.27;;;9.10;1.00;;;;;;5028863;28;20415;-69
2023/04/21 06:22:26;;;;;;;8.80;5.20;;;9.20;1.00;;;;;;5013863;28;20198;-69
2023/04/21 06:24:52;;;;;;;8.60;5.47;;;9.20;1.00;;;;;;5022978;28;20952;-69
2023/04/21 06:27:18;;;;;;;9.40;5.87;;;9.20;1.00;;;;;;5031815;28;20434;-69
2023/04/21 06:29:43;;;;;;;7.53;5.33;;;9.30;1.00;;;;;;5028159;28;20205;-70
2023/04/21 06:32:10;;;;;;;5.20;4.70;;;9.30;1.00;;;;;;5027591;28;20211;-66
2023/04/21 06:34:37;;;;;;;5.03;4.53;;;9.40;1.00;;;;;;5027431;28;20646;-67
2023/04/21 06:37:02;;;;;;;6.43;5.10;;;9.50;1.00;;;;;;5030057;28;20438;-68
2023/04/21 06:39:28;;;;;;;11.50;4.83;;;9.60;1.00;;;;;;5018832;28;20441;-69
2023/04/21 06:41:54;;;;;;;5.40;4.87;;;9.60;1.00;;;;;;5013210;28;20255;-70
2023/04/21 06:44:20;;;;;;;6.33;5.10;;;9.70;1.00;;;;;;5030464;28;20208;-70
2023/04/21 06:46:46;;;;;;;6.80;5.10;;;9.80;1.00;;;;;;5028366;28;20475;-70
2023/04/21 06:49:12;;;;;;;5.53;5.03;;;9.80;1.00;;;;;;5013450;28;20581;-69
2023/04/21 06:51:37;;;;;;;6.27;5.50;;;9.90;1.00;;;;;;5012345;28;20404;-69
2023/04/21 06:54:04;;;;;;;6.53;4.80;;;10.00;1.00;;;;;;5013027;28;20427;-69
2023/04/21 06:56:30;;;;;;;8.73;4.80;;;10.10;1.00;;;;;;5013431;28;20167;-69
2023/04/21 06:58:56;;;;;;;5.50;4.90;;;10.20;1.00;;;;;;5013417;28;20795;-71
2023/04/21 07:01:25;;;;;;;7.63;5.20;;;10.20;1.00;;;;;;5012666;28;20373;-70
2023/04/21 07:03:51;;;;;;;6.73;5.70;;;10.30;1.00;;;;;;5013241;28;20210;-70
2023/04/21 07:06:17;;;;;;;7.73;6.40;;;10.30;1.00;;;;;;5013216;28;20450;-69
2023/04/21 07:08:43;;;;;;;7.10;5.60;;;10.40;1.00;;;;;;5013262;28;20406;-69
2023/04/21 07:11:09;;;;;;;9.47;5.50;;;10.50;1.00;;;;;;5012374;28;20182;-69
2023/04/21 07:13:34;;;;;;;5.47;4.97;;;10.60;1.00;;;;;;5013090;28;20191;-69
2023/04/21 07:16:00;;;;;;;10.00;5.37;;;10.70;1.00;;;;;;5013235;28;20180;-68
2023/04/21 07:18:26;;;;;;;7.33;5.13;;;10.70;1.00;;;;;;5013148;28;20184;-70
2023/04/21 07:20:51;;;;;;;6.07;5.20;;;10.80;1.00;;;;;;5012482;28;20172;-69
2023/04/21 07:23:18;;;;;;;8.93;5.33;;;10.80;1.00;;;;;;5012145;28;20210;-69
2023/04/21 07:25:44;;;;;;;8.00;6.30;;;10.90;1.00;;;;;;5012873;28;20196;-69
2023/04/21 07:28:09;;;;;;;8.43;6.33;;;11.00;1.00;;;;;;5011573;28;20390;-69
2023/04/21 07:30:36;;;;;;;7.87;6.10;;;11.10;1.00;;;;;;5012662;28;20378;-69
2023/04/21 07:33:02;;;;;;;7.50;5.40;;;11.20;1.00;;;;;;5012983;28;20193;-69
2023/04/21 07:35:27;;;;;;;9.23;5.87;;;11.30;1.00;;;;;;5012933;28;20396;-70
2023/04/21 07:37:53;;;;;;;9.00;6.00;;;11.50;1.00;;;;;;5013046;28;20378;-70
2023/04/21 07:40:19;;;;;;;10.20;5.57;;;11.60;1.00;;;;;;5012310;28;20625;-69
2023/04/21 07:42:45;;;;;;;5.20;4.70;;;11.70;1.00;;;;;;5012867;28;20241;-69
2023/04/21 07:45:11;;;;;;;7.60;4.40;;;11.80;1.00;;;;;;5012783;28;20200;-70
2023/04/21 07:47:37;;;;;;;8.07;6.00;;;11.80;1.00;;;;;;5015010;28;20169;-70
2023/04/21 07:50:03;;;;;;;11.13;6.47;;;11.80;1.00;;;;;;5016501;28;20443;-70
2023/04/21 07:52:28;;;;;;;6.10;5.60;;;11.90;1.00;;;;;;5016481;28;20199;-69
2023/04/21 07:54:54;;;;;;;7.20;5.40;;;12.00;1.00;;;;;;5016547;28;20390;-70
2023/04/21 07:57:20;;;;;;;7.70;6.53;;;12.10;1.00;;;;;;5016691;28;20249;-69
2023/04/21 07:59:46;;;;;;;12.00;6.00;;;12.20;1.00;;;;;;5016496;28;20263;-69
2023/04/21 08:02:11;;;;;;;8.90;5.80;;;12.30;1.00;;;;;;5015703;28;20204;-72
2023/04/21 08:04:37;;;;;;;5.93;5.10;;;12.40;1.00;;;;;;5016255;28;20208;-71
2023/04/21 08:07:03;;;;;;;9.03;5.57;;;12.40;1.00;;;;;;5016213;28;20173;-69
2023/04/21 08:09:29;;;;;;;10.73;6.30;;;12.40;1.00;;;;;;5016305;28;20165;-71
2023/04/21 08:11:56;;;;;;;9.23;6.13;;;12.50;1.00;;;;;;5015568;28;20435;-71
2023/04/21 08:14:21;;;;;;;8.53;5.90;;;12.60;1.00;;;;;;5016215;28;20173;-71
2023/04/21 08:16:47;;;;;;;11.60;5.90;;;12.70;1.00;;;;;;5031408;28;20500;-75
2023/04/21 08:19:13;;;;;;;9.67;6.13;;;12.80;1.00;;;;;;5016153;28;20176;-70
2023/04/21 08:21:38;;;;;;;6.57;5.90;;;12.90;1.00;;;;;;5015222;28;20172;-71
2023/04/21 08:24:04;;;;;;;5.87;5.33;;;13.00;1.00;;;;;;5015295;28;20195;-71
2023/04/21 08:26:32;;;;;;;5.90;5.37;;;13.10;1.00;;;;;;5014994;28;20176;-72
2023/04/21 08:28:58;;;;;;;7.70;6.50;;;13.20;1.00;;;;;;5016163;28;20378;-72
2023/04/21 08:31:24;;;;;;;8.30;6.10;;;13.30;1.00;;;;;;5015364;28;21095;-72
2023/04/21 08:33:50;;;;;;;6.73;6.03;;;13.40;1.00;;;;;;5015833;28;20397;-70
2023/04/21 08:36:16;;;;;;;5.47;4.97;;;13.30;1.00;;;;;;5015784;28;20386;-70
2023/04/21 08:38:43;;;;;;;12.03;6.40;;;13.30;1.00;;;;;;5015753;28;20380;-70
2023/04/21 08:41:09;;;;;;;8.13;6.90;;;13.30;1.00;;;;;;5014592;28;20172;-71
2023/04/21 08:43:35;;;;;;;8.87;6.27;;;13.40;1.00;;;;;;5030982;28;20410;-71
2023/04/21 08:46:08;;;;;;;7.50;6.30;;;13.60;1.00;;;;;;5015596;28;20458;-71
2023/04/21 08:48:37;;;;;;;7.67;6.10;;;13.80;1.00;;;;;;5015641;28;20378;-72
2023/04/21 08:51:10;;;;;;;11.47;6.67;;;13.90;1.00;;;;;;5014907;28;20414;-71
2023/04/21 08:53:37;;;;;;;8.00;5.37;;;14.00;1.00;;;;;;5030761;28;20774;-71
2023/04/21 08:56:03;;;;;;;6.77;5.63;;;14.20;1.00;;;;;;5015543;28;20527;-70
2023/04/21 08:58:30;;;;;;;7.00;6.40;;;14.20;1.00;;;;;;5014997;28;20411;-72
2023/04/21 09:00:56;;;;;;;7.10;5.97;;;14.40;1.00;;;;;;5014328;28;20426;-72
2023/04/21 09:03:24;;;;;;;9.37;6.80;;;14.60;1.00;;;;;;5015161;28;20434;-76
2023/04/21 09:06:00;;;;;;;9.23;6.60;;;14.90;1.00;;;;;;5015250;28;20490;-73
2023/04/21 09:08:29;;;;;;;7.60;6.87;;;15.30;1.00;;;;;;5021096;28;20483;-72
2023/04/21 09:10:55;;;;;;;12.10;6.20;;;15.50;1.00;;;;;;5034375;28;20908;-73
2023/04/21 09:13:31;;;;;;;8.90;5.97;;;15.70;1.00;;;;;;5033565;28;20477;-73
2023/04/21 09:15:58;;;;;;;8.40;7.70;;;15.70;1.00;;;;;;5035187;28;20437;-72
2023/04/21 09:18:25;;;;;;;8.73;6.77;;;15.80;1.00;;;;;;5034008;28;20422;-73
2023/04/21 09:21:04;;;;;;;11.03;6.23;;;15.90;1.00;;;;;;5034227;28;20916;-73
2023/04/21 09:23:30;;;;;;;8.57;6.80;;;16.20;1.00;;;;;;5033582;28;20966;-72
2023/04/21 09:25:55;;;;;;;12.27;6.30;;;16.30;1.00;;;;;;5034649;28;20526;-73
2023/04/21 09:28:21;;;;;;;9.27;6.40;;;16.50;1.00;;;;;;5034468;28;20176;-73
2023/04/21 09:30:54;;;;;;;7.03;5.53;;;16.50;1.00;;;;;;5032991;28;20199;-73
2023/04/21 09:33:20;;;;;;;9.93;6.10;;;16.80;1.00;;;;;;5034500;28;20644;-73
2023/04/21 09:35:46;;;;;;;16.97;6.33;;;17.00;1.00;;;;;;5034548;28;20417;-73
2023/04/21 09:38:12;;;;;;;6.43;5.60;;;16.90;1.00;;;;;;5034149;28;20522;-73
2023/04/21 09:40:39;;;;;;;6.80;5.60;;;17.10;1.00;;;;;;5033156;28;20489;-73
2023/04/21 09:43:05;;;;;;;13.27;5.57;;;17.50;1.00;;;;;;5034325;28;20426;-73
2023/04/21 09:45:34;;;;;;;7.73;5.97;;;17.40;1.00;;;;;;5032955;28;20796;-73
2023/04/21 09:48:00;;;;;;;6.20;5.70;;;17.50;1.00;;;;;;5033015;28;20429;-73
2023/04/21 09:50:27;;;;;;;7.90;6.50;;;17.50;1.00;;;;;;5033763;28;20398;-73
2023/04/21 09:52:54;;;;;;;9.63;5.83;;;17.70;1.00;;;;;;5034053;28;20426;-72
2023/04/21 09:55:28;;;;;;;9.43;5.57;;;17.50;1.00;;;;;;5033405;28;20433;-72
2023/04/21 09:57:58;;;;;;;10.17;5.67;;;17.50;1.00;;;;;;5034038;28;20410;-72
2023/04/21 10:00:28;;;;;;;10.47;6.10;;;17.70;1.00;;;;;;5033540;28;20415;-73
2023/04/21 10:02:56;;;;;;;6.40;5.33;;;18.20;1.00;;;;;;5033819;28;20516;-73
2023/04/21 10:05:22;;;;;;;8.57;6.20;;;18.20;1.00;;;;;;5032540;28;20457;-73
2023/04/21 10:07:49;;;;;;;6.70;6.07;;;18.40;1.00;;;;;;5033002;28;20819;-72
2023/04/21 10:10:27;;;;;;;7.30;5.80;;;18.60;1.00;;;;;;5032545;28;20410;-73
2023/04/21 10:12:54;;;;;;;13.40;6.60;;;18.50;1.00;;;;;;5033676;28;20414;-73
2023/04/21 10:15:39;;;;;;;7.60;5.70;;;18.80;1.00;;;;;;5032889;28;20898;-73
2023/04/21 10:18:20;;;;;;;8.63;6.03;;;19.20;1.00;;;;;;5033780;28;20883;-73
2023/04/21 10:21:06;;;;;;;10.50;7.53;;;19.60;1.00;;;;;;5032976;28;20412;-73
2023/04/21 10:23:37;;;;;;;7.40;6.27;;;20.00;1.00;;;;;;5032226;28;20969;-74
2023/04/21 10:26:16;;;;;;;7.67;6.10;;;19.60;1.00;;;;;;5033444;28;20465;-73
2023/04/21 10:28:46;;;;;;;7.67;5.90;;;19.30;1.00;;;;;;5033551;28;20394;-72
2023/04/21 10:31:20;;;;;;;8.13;5.80;;;18.80;1.00;;;;;;5032787;28;20383;-73
2023/04/21 10:34:07;;;;;;;7.90;5.87;;;18.90;1.00;;;;;;5033238;28;20910;-73
2023/04/21 10:36:45;;;;;;;9.43;6.30;;;19.20;1.00;;;;;;5033095;28;20390;-73
2023/04/21 10:39:24;;;;;;;9.20;5.80;;;19.60;1.00;;;;;;5033308;28;20402;-72
2023/04/21 10:41:50;;;;;;;6.90;5.00;;;19.60;1.00;;;;;;5032803;28;20409;-73
2023/04/21 10:44:16;;;;;;;9.17;6.73;;;19.50;1.00;;;;;;5033280;28;20394;-73
2023/04/21 10:46:47;;;;;;;6.37;5.50;;;19.50;1.00;;;;;;5033284;28;20168;-73
2023/04/21 10:49:28;;;;;;;9.13;5.47;;;19.70;1.00;;;;;;5033197;28;20398;-73
2023/04/21 10:52:01;;;;;;;7.30;6.03;;;19.80;1.00;;;;;;5032480;28;20418;-73
2023/04/21 10:54:42;;;;;;;10.33;5.90;;;19.40;1.00;;;;;;5032273;28;20411;-72
2023/04/21 10:57:19;;;;;;;8.63;6.20;;;19.20;1.00;;;;;;5033172;28;20406;-73
2023/04/21 10:59:46;;;;;;;12.93;6.23;;;19.40;1.00;;;;;;5033200;28;20413;-73
2023/04/21 11:02:14;;;;;;;10.87;6.30;;;19.20;1.00;;;;;;5030916;28;20978;-73
2023/04/21 11:04:43;;;;;;;7.90;6.73;;;18.90;1.00;;;;;;5031420;28;20466;-73
2023/04/21 11:07:15;;;;;;;6.40;5.03;;;19.20;1.00;;;;;;5033055;28;20433;-73
2023/04/21 11:09:42;;;;;;;12.93;6.23;;;19.30;1.00;;;;;;5030327;28;20422;-73
2023/04/21 11:12:10;;;;;;;8.53;6.40;;;19.10;1.00;;;;;;5021236;28;20541;-73
2023/04/21 11:14:37;;;;;;;7.33;6.47;;;18.70;1.00;;;;;;5041767;28;20481;-73
2023/04/21 11:17:11;;;;;;;8.27;5.77;;;19.10;1.00;;;;;;5021879;28;20943;-73
2023/04/21 11:19:37;;;;;;;8.03;6.07;;;19.20;1.00;;;;;;5031526;28;20523;-73
2023/04/21 11:22:04;;;;;;;7.10;6.07;;;19.30;1.00;;;;;;5032970;28;20450;-73
2023/04/21 11:24:31;;;;;;;7.90;5.50;;;19.80;1.00;;;;;;5035609;28;20445;-73
2023/04/21 11:26:57;;;;;;;9.47;5.20;;;20.00;1.00;;;;;;5036378;28;20405;-73
2023/04/21 11:29:23;;;;;;;6.50;5.33;;;20.50;1.00;;;;;;5035768;28;20401;-73
2023/04/21 11:31:49;;;;;;;5.20;4.70;;;20.70;1.00;;;;;;5034213;28;20520;-73
2023/04/21 11:34:19;;;;;;;9.97;5.90;;;20.90;1.00;;;;;;5035350;28;20942;-74
2023/04/21 11:36:46;;;;;;;11.43;6.10;;;21.00;1.00;;;;;;5034372;28;20783;-73
2023/04/21 11:39:14;;;;;;;8.30;5.33;;;21.10;1.00;;;;;;5036823;28;20418;-73
2023/04/21 11:41:45;;;;;;;10.87;6.20;;;21.20;1.00;;;;;;5035931;28;20413;-73
2023/04/21 11:44:12;;;;;;;10.60;5.83;;;21.10;1.00;;;;;;5036089;28;20398;-75
2023/04/21 11:46:45;;;;;;;10.37;5.73;;;20.90;1.00;;;;;;5036020;28;20459;-73
2023/04/21 11:49:13;;;;;;;7.90;6.03;;;21.00;1.00;;;;;;5036675;28;20413;-73
2023/04/21 11:51:41;;;;;;;9.97;6.83;;;20.80;1.00;;;;;;5035729;28;20961;-73
2023/04/21 11:54:09;;;;;;;6.63;5.80;;;20.70;1.00;;;;;;5036382;28;20457;-73
2023/04/21 11:56:55;;;;;;;13.83;6.10;;;20.20;1.00;;;;;;5036331;28;20824;-73
2023/04/21 11:59:25;;;;;;;11.00;6.60;;;19.70;1.00;;;;;;5036136;28;20419;-72
2023/04/21 12:01:53;;;;;;;10.33;6.93;;;19.60;1.00;;;;;;5035190;28;20409;-73
2023/04/21 12:04:21;;;;;;;8.87;5.70;;;19.90;1.00;;;;;;5035765;28;20425;-73
2023/04/21 12:07:00;;;;;;;7.37;6.73;;;20.10;1.00;;;;;;5034732;28;20964;-72
2023/04/21 12:09:27;;;;;;;6.67;6.00;;;20.30;1.00;;;;;;5036086;28;20402;-73
2023/04/21 12:11:56;;;;;;;7.40;6.00;;;20.50;1.00;;;;;;5035308;28;20429;-73
2023/04/21 12:14:23;;;;;;;6.37;5.70;;;20.40;1.00;;;;;;5036128;28;20405;-73
2023/04/21 12:16:57;;;;;;;9.70;6.77;;;20.10;1.00;;;;;;5036036;28;20430;-72
2023/04/21 12:19:25;;;;;;;7.67;6.27;;;19.90;1.00;;;;;;5034671;28;20402;-73
2023/04/21 12:21:57;;;;;;;7.40;5.47;;;20.00;1.00;;;;;;5034867;28;20503;-73
2023/04/21 12:24:23;;;;;;;11.30;7.70;;;20.20;1.00;;;;;;5035501;28;20409;-73
2023/04/21 12:26:49;;;;;;;7.83;7.03;;;20.00;1.00;;;;;;5035845;28;20493;-73
2023/04/21 12:29:15;;;;;;;7.97;6.80;;;20.10;1.00;;;;;;5035791;28;20168;-73
2023/04/21 12:31:40;;;;;;;9.67;7.10;;;20.00;1.00;;;;;;5035150;28;20398;-73
2023/04/21 12:34:06;;;;;;;11.20;6.00;;;20.20;1.00;;;;;;5034899;28;20696;-73
2023/04/21 12:36:31;;;;;;;8.37;7.23;;;20.20;1.00;;;;;;5035757;28;20625;-72
2023/04/21 12:38:57;;;;;;;8.80;7.43;;;20.30;1.00;;;;;;5035628;28;20664;-73
2023/04/21 12:41:23;;;;;;;7.97;7.13;;;20.20;1.00;;;;;;5034397;28;20531;-72
2023/04/21 12:43:49;;;;;;;8.13;6.87;;;20.10;1.00;;;;;;5035151;28;20190;-72
2023/04/21 12:46:15;;;;;;;8.50;7.23;;;19.90;1.00;;;;;;5035323;28;20187;-72
2023/04/21 12:48:40;;;;;;;9.33;7.90;;;20.10;1.00;;;;;;5035294;28;20183;-73
2023/04/21 12:51:06;;;;;;;9.47;7.00;;;20.00;1.00;;;;;;5034811;28;20732;-74
2023/04/21 12:53:32;;;;;;;9.97;5.87;;;20.20;1.00;;;;;;5035280;28;20179;-72
2023/04/21 12:55:57;;;;;;;8.67;6.03;;;20.30;1.00;;;;;;5035272;28;20172;-73
2023/04/21 12:58:23;;;;;;;9.47;7.60;;;20.60;1.00;;;;;;5033775;28;20536;-73